Charter Quote
Worldwide +1-877-727-2538 Call
Select Language Lang
SAFETY RELIABILITY EXPERIENCE

Payerne Airport (LSMP) - Jet Charter Services

AIRPORT INFORMATION
ICAOLSMP
LOCATIONPayerne, Switzerland
FACILITY TYPEAIRPORT
Runway Length (ft) Width (ft) Surface Type Elevation (ft)
23/05 9376 130 ASP 1459.04918

At Paramount Business Jets you can hire chartered private jets to and from Payerne Airport with as little as 4 hours of notice. All flights booked via Paramount Business Jets are operated by certified direct air carriers that meet and exceed the FAA part 135 and 121 protocol or a foreign equivalent safety authority. Furthermore, Paramount Business Jets subscribes to ARGUS for their third party safety checks of operators, aircraft, and crews prior each and every flight to and from Payerne Airport and worldwide.

  • Quote a trip using Payerne Airport or call us 24/7 - 365 days a year at +1-877-727-2538.
Questions? Call +1-877-727-2538

METAR Weather Data at Payerne Airport, LSMP

STATIONLSMP
OBSERVEDSun Mar 24, 06:20 UTC
NOWSun Mar 24, 06:46 UTC
AGE26 min ago
WINDvaries at 1 mph
METARLSMP 240620Z AUTO VRB01KT 9999NDV NCD 01/M01 Q1025 RMK

Call us on +1-877-727-2538 (24 Hours) to Hire a Private Jet or Get a Quick Quote.

Find Airports Near any Location

Processing
...